createdAt,value
2019-04-27T00:01:28.318Z,31.03
2019-04-27T00:04:04.091Z,25.17
2019-04-27T00:06:43.068Z,25.07
2019-04-27T00:09:29.480Z,30.23
2019-04-27T00:12:05.723Z,28.73
2019-04-27T00:14:36.313Z,29.33
2019-04-27T00:17:13.789Z,26.43
2019-04-27T00:19:51.024Z,28.23
2019-04-27T00:22:28.453Z,27.93
2019-04-27T00:24:58.165Z,28.07
2019-04-27T00:27:27.830Z,29.07
2019-04-27T00:29:57.499Z,28.57
2019-04-27T00:32:27.466Z,28.07
2019-04-27T00:34:57.192Z,31.27
2019-04-27T00:37:31.172Z,29.83
2019-04-27T00:40:05.405Z,30.43
2019-04-27T00:42:35.702Z,30.73
2019-04-27T00:45:06.832Z,32.90
2019-04-27T00:47:36.499Z,31.77
2019-04-27T00:50:07.428Z,27.57
2019-04-27T00:52:37.160Z,29.77
2019-04-27T00:55:07.428Z,31.30
2019-04-27T00:57:41.183Z,32.97
2019-04-27T01:00:18.487Z,27.97
2019-04-27T01:03:06.746Z,28.00
2019-04-27T01:05:36.473Z,30.60
2019-04-27T01:08:06.073Z,30.60
2019-04-27T01:10:35.922Z,29.07
2019-04-27T01:13:05.878Z,28.13
2019-04-27T01:15:35.608Z,30.30
2019-04-27T01:18:12.324Z,29.40
2019-04-27T01:20:38.716Z,33.07
2019-04-27T01:23:10.795Z,33.53
2019-04-27T01:25:42.276Z,31.43
2019-04-27T01:28:22.487Z,29.97
2019-04-27T01:30:53.790Z,33.63
2019-04-27T01:33:23.678Z,31.03
2019-04-27T01:35:53.358Z,30.07
2019-04-27T01:38:23.056Z,28.00
2019-04-27T01:40:52.731Z,29.00
2019-04-27T01:43:22.440Z,29.33
2019-04-27T01:45:52.121Z,28.93
2019-04-27T01:48:25.211Z,29.33
2019-04-27T01:50:53.192Z,28.33
2019-04-27T01:53:22.776Z,31.20
2019-04-27T01:55:52.430Z,29.07
2019-04-27T01:58:22.078Z,33.27
2019-04-27T02:01:09.667Z,33.40
2019-04-27T02:03:59.390Z,32.53
2019-04-27T02:06:29.549Z,31.83
2019-04-27T02:08:59.597Z,30.10
2019-04-27T02:11:29.414Z,30.90
2019-04-27T02:13:59.475Z,31.27
2019-04-27T02:16:30.663Z,29.43
2019-04-27T02:19:00.878Z,31.40
2019-04-27T02:21:30.555Z,32.30
2019-04-27T02:24:01.272Z,32.70
2019-04-27T02:26:30.876Z,30.07
2019-04-27T02:29:05.132Z,27.60
2019-04-27T02:31:42.637Z,28.97
2019-04-27T02:34:20.098Z,30.73
2019-04-27T02:36:50.992Z,29.07
2019-04-27T02:39:21.675Z,30.53
2019-04-27T02:41:51.873Z,28.93
2019-04-27T02:44:24.485Z,30.17
2019-04-27T02:46:54.199Z,29.80
2019-04-27T02:49:23.876Z,28.60
2019-04-27T02:51:55.181Z,33.47
2019-04-27T02:54:25.352Z,30.80
2019-04-27T02:56:55.023Z,25.90
2019-04-27T02:59:24.654Z,32.13
2019-04-27T03:01:55.911Z,27.00
2019-04-27T03:04:25.487Z,29.63
2019-04-27T03:06:55.149Z,25.70
2019-04-27T03:09:24.763Z,28.30
2019-04-27T03:11:55.162Z,27.80
2019-04-27T03:14:42.506Z,31.50
2019-04-27T03:17:13.792Z,30.37
2019-04-27T03:19:54.108Z,28.27
2019-04-27T03:22:34.187Z,28.10
2019-04-27T03:25:10.190Z,27.77
2019-04-27T03:27:50.824Z,26.20
2019-04-27T03:30:22.847Z,27.00
2019-04-27T03:32:56.761Z,29.27
2019-04-27T03:35:23.377Z,27.97
2019-04-27T03:37:53.089Z,31.33
2019-04-27T03:40:22.805Z,31.50
2019-04-27T03:42:54.113Z,28.13
2019-04-27T03:45:23.940Z,32.00
2019-04-27T03:47:53.585Z,29.50
2019-04-27T03:50:30.246Z,29.33
2019-04-27T03:53:06.833Z,27.77
2019-04-27T03:55:53.136Z,29.23
2019-04-27T03:58:24.431Z,30.13
2019-04-27T04:00:54.696Z,30.87
2019-04-27T04:03:24.370Z,26.63
2019-04-27T04:05:53.949Z,32.67
2019-04-27T04:08:23.663Z,28.87
2019-04-27T04:10:54.961Z,27.87
2019-04-27T04:13:32.240Z,27.73
2019-04-27T04:16:20.400Z,25.73
2019-04-27T04:19:00.436Z,26.80
2019-04-27T04:21:30.175Z,24.40
2019-04-27T04:24:00.846Z,29.10
2019-04-27T04:26:32.835Z,30.87
2019-04-27T04:29:02.352Z,26.07
2019-04-27T04:31:33.300Z,28.30
2019-04-27T04:34:03.300Z,29.37
2019-04-27T04:36:32.952Z,26.20
2019-04-27T04:39:02.617Z,23.47
2019-04-27T04:41:43.696Z,28.80
2019-04-27T04:44:14.300Z,28.87
2019-04-27T04:46:51.783Z,25.03
2019-04-27T04:49:21.501Z,25.50
2019-04-27T04:51:51.237Z,24.60
2019-04-27T04:54:24.375Z,26.37
2019-04-27T04:56:52.161Z,25.43
2019-04-27T04:59:21.876Z,25.77
2019-04-27T05:01:51.638Z,23.13
2019-04-27T05:04:21.293Z,24.37
2019-04-27T05:06:50.961Z,26.97
2019-04-27T05:09:20.629Z,24.73
2019-04-27T05:11:50.219Z,23.90
2019-04-27T05:14:20.238Z,25.67
2019-04-27T05:16:49.823Z,22.83
2019-04-27T05:19:19.537Z,22.57
2019-04-27T05:21:49.250Z,23.33
2019-04-27T05:24:19.339Z,19.07
2019-04-27T05:26:48.926Z,19.50
2019-04-27T05:29:19.150Z,17.87
2019-04-27T05:31:49.191Z,22.87
2019-04-27T05:34:19.703Z,18.53
2019-04-27T05:36:52.445Z,18.67
2019-04-27T05:39:25.009Z,20.90
2019-04-27T05:41:52.720Z,27.50
2019-04-27T05:44:25.133Z,20.53
2019-04-27T05:47:13.078Z,22.00
2019-04-27T05:49:44.571Z,20.63
2019-04-27T05:52:30.059Z,16.93
2019-04-27T05:55:01.134Z,17.40
2019-04-27T05:57:31.420Z,17.93
2019-04-27T06:00:02.028Z,17.10
2019-04-27T06:02:33.032Z,16.20
2019-04-27T06:05:02.690Z,16.73
2019-04-27T06:07:32.426Z,15.23
2019-04-27T06:10:02.082Z,15.53
2019-04-27T06:12:32.827Z,15.90
2019-04-27T06:15:02.495Z,16.27
2019-04-27T06:17:32.155Z,16.23
2019-04-27T06:20:01.758Z,15.90
2019-04-27T06:22:32.469Z,15.63
2019-04-27T06:25:02.130Z,19.23
2019-04-27T06:27:31.832Z,15.70
2019-04-27T06:30:04.693Z,16.93
2019-04-27T06:32:32.827Z,17.80
2019-04-27T06:35:02.482Z,15.70
2019-04-27T06:37:32.212Z,14.40
2019-04-27T06:40:01.847Z,17.43
2019-04-27T06:42:31.603Z,17.20
2019-04-27T06:45:01.284Z,13.30
2019-04-27T06:47:30.938Z,15.10
2019-04-27T06:50:01.600Z,20.00
2019-04-27T06:52:31.252Z,16.30
2019-04-27T06:55:00.843Z,18.60
2019-04-27T06:57:30.487Z,18.73
2019-04-27T07:00:00.162Z,16.83
2019-04-27T07:02:29.824Z,18.50
2019-04-27T07:04:59.425Z,17.87
2019-04-27T07:07:29.416Z,15.90
2019-04-27T07:09:59.353Z,18.87
2019-04-27T07:12:29.098Z,17.03
2019-04-27T07:14:59.232Z,17.97
2019-04-27T07:17:29.243Z,16.93
2019-04-27T07:19:59.615Z,16.47
2019-04-27T07:22:29.933Z,16.87
2019-04-27T07:25:00.692Z,15.43
2019-04-27T07:27:30.344Z,14.43
2019-04-27T07:30:01.705Z,17.83
2019-04-27T07:32:32.470Z,14.47
2019-04-27T07:35:02.134Z,15.63
2019-04-27T07:37:31.794Z,16.63
2019-04-27T07:40:01.405Z,13.30
2019-04-27T07:42:32.289Z,14.73
2019-04-27T07:45:06.662Z,17.13
2019-04-27T07:47:36.715Z,14.60
2019-04-27T07:50:06.644Z,14.80
2019-04-27T07:52:38.068Z,13.30
2019-04-27T07:55:08.694Z,16.80
2019-04-27T07:57:39.981Z,14.30
2019-04-27T08:00:11.170Z,13.83
2019-04-27T08:02:40.841Z,14.40
2019-04-27T08:05:10.501Z,13.37
2019-04-27T08:07:40.176Z,14.27
2019-04-27T08:10:09.941Z,10.83
2019-04-27T08:12:39.662Z,16.07
2019-04-27T08:15:09.850Z,12.27
2019-04-27T08:17:42.407Z,11.90
2019-04-27T08:20:11.302Z,12.67
2019-04-27T08:22:40.965Z,15.37
2019-04-27T08:25:10.838Z,14.13
2019-04-27T08:27:42.148Z,11.53
2019-04-27T08:30:29.466Z,13.07
2019-04-27T08:33:00.804Z,14.93
2019-04-27T08:35:32.696Z,11.63
2019-04-27T08:38:01.798Z,13.83
2019-04-27T08:40:31.498Z,12.97
2019-04-27T08:43:01.086Z,12.60
2019-04-27T08:45:31.844Z,13.50
2019-04-27T08:48:01.596Z,11.93
2019-04-27T08:50:31.322Z,17.50
2019-04-27T08:53:00.959Z,14.73
2019-04-27T08:55:30.610Z,11.67
2019-04-27T08:58:00.218Z,16.70
2019-04-27T09:00:29.872Z,14.20
2019-04-27T09:02:59.676Z,14.40
2019-04-27T09:05:29.294Z,14.23
2019-04-27T09:08:00.626Z,14.73
2019-04-27T09:10:34.984Z,16.27
2019-04-27T09:13:06.226Z,12.53
2019-04-27T09:15:39.162Z,19.17
2019-04-27T09:18:09.483Z,16.77
2019-04-27T09:20:40.784Z,16.70
2019-04-27T09:23:10.471Z,17.67
2019-04-27T09:25:40.123Z,17.50
2019-04-27T09:28:09.861Z,17.20
2019-04-27T09:30:39.582Z,18.30
2019-04-27T09:33:09.294Z,14.73
2019-04-27T09:35:38.965Z,17.30
2019-04-27T09:38:08.726Z,17.43
2019-04-27T09:40:38.347Z,17.70
2019-04-27T09:43:08.002Z,18.83
2019-04-27T09:45:37.794Z,17.80
2019-04-27T09:48:07.449Z,14.07
2019-04-27T09:50:37.034Z,16.50
2019-04-27T09:53:06.746Z,16.48
2019-04-27T09:55:36.847Z,16.37
2019-04-27T09:58:06.733Z,18.77
2019-04-27T10:00:36.714Z,22.80
2019-04-27T10:03:06.735Z,17.97
2019-04-27T10:05:36.868Z,20.63
2019-04-27T10:08:07.650Z,16.73
2019-04-27T10:10:37.368Z,16.70
2019-04-27T10:13:07.216Z,18.97
2019-04-27T10:15:36.918Z,13.87
2019-04-27T10:18:06.599Z,18.10
2019-04-27T10:20:40.519Z,17.87
2019-04-27T10:23:07.550Z,20.27
2019-04-27T10:25:37.624Z,18.43
2019-04-27T10:28:07.184Z,17.50
2019-04-27T10:30:36.916Z,16.50
2019-04-27T10:33:08.127Z,18.20
2019-04-27T10:35:38.024Z,16.30
2019-04-27T10:38:07.698Z,19.27
2019-04-27T10:40:37.376Z,17.77
2019-04-27T10:43:07.028Z,17.50
2019-04-27T10:45:37.861Z,23.50
2019-04-27T10:48:07.797Z,16.13
2019-04-27T10:50:37.574Z,19.23
2019-04-27T10:53:07.358Z,17.50
2019-04-27T10:55:37.092Z,18.57
2019-04-27T10:58:06.785Z,18.90
2019-04-27T11:00:53.362Z,17.13
2019-04-27T11:03:40.907Z,19.30
2019-04-27T11:06:28.663Z,18.80
2019-04-27T11:08:58.527Z,18.30
2019-04-27T11:11:28.235Z,18.40
2019-04-27T11:14:00.840Z,22.27
2019-04-27T11:16:29.154Z,18.73
2019-04-27T11:18:58.913Z,17.40
2019-04-27T11:21:28.565Z,18.63
2019-04-27T11:23:58.230Z,18.10
2019-04-27T11:26:28.886Z,21.00
2019-04-27T11:29:04.139Z,17.70
2019-04-27T11:31:33.799Z,18.33
2019-04-27T11:34:03.540Z,18.37
2019-04-27T11:36:36.320Z,19.23
2019-04-27T11:39:11.494Z,16.00
2019-04-27T11:41:41.168Z,20.23
2019-04-27T11:44:10.856Z,18.43
2019-04-27T11:46:40.498Z,17.00
2019-04-27T11:49:10.364Z,17.93
2019-04-27T11:51:40.092Z,20.23
2019-04-27T11:54:09.753Z,17.30
2019-04-27T11:56:42.148Z,17.67
2019-04-27T11:59:11.742Z,21.43
2019-04-27T12:01:41.436Z,16.07
2019-04-27T12:04:11.130Z,19.53
2019-04-27T12:06:40.802Z,18.17
2019-04-27T12:09:10.909Z,19.97
2019-04-27T12:11:40.738Z,17.60
2019-04-27T12:14:10.418Z,19.33
2019-04-27T12:16:40.086Z,17.53
2019-04-27T12:19:09.816Z,19.93
2019-04-27T12:21:41.959Z,15.73
2019-04-27T12:24:13.451Z,19.30
2019-04-27T12:26:50.503Z,18.07
2019-04-27T12:29:21.809Z,17.53
2019-04-27T12:31:51.542Z,19.43
2019-04-27T12:34:21.148Z,21.80
2019-04-27T12:36:53.165Z,15.60
2019-04-27T12:39:22.021Z,18.77
2019-04-27T12:41:51.751Z,17.67
2019-04-27T12:44:21.330Z,17.63
2019-04-27T12:46:53.966Z,18.87
2019-04-27T12:49:23.642Z,19.57
2019-04-27T12:51:53.312Z,19.47
2019-04-27T12:54:26.130Z,18.47
2019-04-27T12:57:13.651Z,18.80
2019-04-27T13:00:00.338Z,20.33
2019-04-27T13:02:31.625Z,18.80
2019-04-27T13:05:01.314Z,17.27
2019-04-27T13:07:30.999Z,20.67
2019-04-27T13:10:02.157Z,23.37
2019-04-27T13:12:31.829Z,20.97
2019-04-27T13:15:01.561Z,22.80
2019-04-27T13:17:32.331Z,21.67
2019-04-27T13:20:03.010Z,21.40
2019-04-27T13:22:36.913Z,18.67
2019-04-27T13:25:09.329Z,23.27
2019-04-27T13:27:38.656Z,21.63
2019-04-27T13:30:09.387Z,21.77
2019-04-27T13:32:40.210Z,20.43
2019-04-27T13:35:10.290Z,21.77
2019-04-27T13:37:41.590Z,22.57
2019-04-27T13:40:17.078Z,18.70
2019-04-27T13:42:57.231Z,22.03
2019-04-27T13:45:43.722Z,21.63
2019-04-27T13:48:23.587Z,20.13
2019-04-27T13:50:56.416Z,18.17
2019-04-27T13:53:26.327Z,19.53
2019-04-27T13:55:56.798Z,23.33
2019-04-27T13:58:26.518Z,20.87
2019-04-27T14:00:56.253Z,21.37
2019-04-27T14:03:25.939Z,20.07
2019-04-27T14:05:56.891Z,17.07
2019-04-27T14:08:26.982Z,18.10
2019-04-27T14:10:56.657Z,21.40
2019-04-27T14:13:26.333Z,20.37
2019-04-27T14:15:55.955Z,20.53
2019-04-27T14:18:25.598Z,18.00
2019-04-27T14:20:55.341Z,21.37
2019-04-27T14:23:28.303Z,19.30
2019-04-27T14:25:58.544Z,17.93
2019-04-27T14:28:29.322Z,15.73
2019-04-27T14:30:59.189Z,15.70
2019-04-27T14:33:28.958Z,19.97
2019-04-27T14:35:59.527Z,16.00
2019-04-27T14:38:29.260Z,19.67
2019-04-27T14:40:59.393Z,18.20
2019-04-27T14:43:29.382Z,18.87
2019-04-27T14:45:59.208Z,17.70
2019-04-27T14:48:29.541Z,19.43
2019-04-27T14:50:59.261Z,17.37
2019-04-27T14:53:28.948Z,18.63
2019-04-27T14:55:58.693Z,18.57
2019-04-27T14:58:40.852Z,15.17
2019-04-27T15:01:10.513Z,16.50
2019-04-27T15:03:40.178Z,16.80
2019-04-27T15:06:09.876Z,17.90
2019-04-27T15:08:42.603Z,16.47
2019-04-27T15:11:17.450Z,16.57
2019-04-27T15:13:43.098Z,15.40
2019-04-27T15:16:14.564Z,19.17
2019-04-27T15:18:45.790Z,15.10
2019-04-27T15:21:15.653Z,16.23
2019-04-27T15:23:48.195Z,16.33
2019-04-27T15:26:20.356Z,17.63
2019-04-27T15:28:51.173Z,19.50
2019-04-27T15:31:31.362Z,17.37
2019-04-27T15:34:02.802Z,16.60
2019-04-27T15:36:37.046Z,15.33
2019-04-27T15:39:26.964Z,14.87
2019-04-27T15:42:07.922Z,14.57
2019-04-27T15:44:36.494Z,15.13
2019-04-27T15:47:10.272Z,18.33
2019-04-27T15:49:45.118Z,18.27
2019-04-27T15:52:12.476Z,16.77
2019-04-27T15:54:42.216Z,17.33
2019-04-27T15:57:13.799Z,16.27
2019-04-27T15:59:43.746Z,18.63
2019-04-27T16:02:15.505Z,14.33
2019-04-27T16:04:49.953Z,17.03
2019-04-27T16:07:18.197Z,16.13
2019-04-27T16:09:49.381Z,14.63
2019-04-27T16:12:18.998Z,18.07
2019-04-27T16:14:48.684Z,13.33
2019-04-27T16:17:18.420Z,16.17
2019-04-27T16:19:50.379Z,19.13
2019-04-27T16:22:22.569Z,13.87
2019-04-27T16:24:53.484Z,14.33
2019-04-27T16:27:25.757Z,14.63
2019-04-27T16:29:53.637Z,17.60
2019-04-27T16:32:23.377Z,17.10
2019-04-27T16:34:54.431Z,18.70
2019-04-27T16:37:25.670Z,15.00
2019-04-27T16:39:55.333Z,17.50
2019-04-27T16:42:25.133Z,14.70
2019-04-27T16:44:54.774Z,13.93
2019-04-27T16:47:24.891Z,13.10
2019-04-27T16:49:54.780Z,16.03
2019-04-27T16:52:27.353Z,18.03
2019-04-27T16:54:57.311Z,14.43
2019-04-27T16:57:28.134Z,13.03
2019-04-27T17:00:01.029Z,13.27
2019-04-27T17:02:29.392Z,18.87
2019-04-27T17:04:59.217Z,17.03
2019-04-27T17:07:30.157Z,14.53
2019-04-27T17:10:00.176Z,12.97
2019-04-27T17:12:34.833Z,14.33
2019-04-27T17:15:20.552Z,12.97
2019-04-27T17:17:59.231Z,13.10
2019-04-27T17:20:29.906Z,12.23
2019-04-27T17:22:59.624Z,12.73
2019-04-27T17:25:30.498Z,14.40
2019-04-27T17:28:04.055Z,13.00
2019-04-27T17:30:39.706Z,12.90
2019-04-27T17:33:11.716Z,15.00
2019-04-27T17:35:39.480Z,16.13
2019-04-27T17:38:12.388Z,14.07
2019-04-27T17:40:40.703Z,13.80
2019-04-27T17:43:10.624Z,16.53
2019-04-27T17:45:42.002Z,17.77
2019-04-27T17:48:14.144Z,14.20
2019-04-27T17:50:42.997Z,13.40
2019-04-27T17:53:12.725Z,15.77
2019-04-27T17:55:42.431Z,14.53
2019-04-27T17:58:12.066Z,20.80
2019-04-27T18:00:44.555Z,14.40
2019-04-27T18:03:18.698Z,17.43
2019-04-27T18:05:49.329Z,17.93
2019-04-27T18:08:19.998Z,17.37
2019-04-27T18:10:48.574Z,17.43
2019-04-27T18:13:19.038Z,16.57
2019-04-27T18:15:50.680Z,17.97
2019-04-27T18:18:28.388Z,14.53
2019-04-27T18:20:58.078Z,15.53
2019-04-27T18:23:38.151Z,15.03
2019-04-27T18:26:12.711Z,15.43
2019-04-27T18:28:45.847Z,17.60
2019-04-27T18:31:17.913Z,15.13
2019-04-27T18:33:47.649Z,18.23
2019-04-27T18:36:20.219Z,14.20
2019-04-27T18:38:49.888Z,15.43
2019-04-27T18:41:19.560Z,13.70
2019-04-27T18:43:52.111Z,15.10
2019-04-27T18:46:24.518Z,19.50
2019-04-27T18:48:54.080Z,16.33
2019-04-27T18:51:31.352Z,13.80
2019-04-27T18:54:03.555Z,14.57
2019-04-27T18:56:33.426Z,14.43
2019-04-27T18:59:04.148Z,16.13
2019-04-27T19:01:34.939Z,16.10
2019-04-27T19:04:04.706Z,14.00
2019-04-27T19:06:34.392Z,16.83
2019-04-27T19:09:05.829Z,14.20
2019-04-27T19:11:38.280Z,15.93
2019-04-27T19:14:08.419Z,19.97
2019-04-27T19:16:38.467Z,18.70
2019-04-27T19:19:08.772Z,16.47
2019-04-27T19:21:39.276Z,15.30
2019-04-27T19:24:09.126Z,15.57
2019-04-27T19:26:43.255Z,15.33
2019-04-27T19:29:23.587Z,15.13
2019-04-27T19:31:54.913Z,14.17
2019-04-27T19:34:24.574Z,12.50
2019-04-27T19:36:54.240Z,16.37
2019-04-27T19:39:23.835Z,16.03
2019-04-27T19:42:00.391Z,15.80
2019-04-27T19:44:24.852Z,16.00
2019-04-27T19:46:54.509Z,16.00
2019-04-27T19:49:24.277Z,13.93
2019-04-27T19:51:55.423Z,18.23
2019-04-27T19:54:25.159Z,17.37
2019-04-27T19:56:54.808Z,18.47
2019-04-27T19:59:31.938Z,15.50
2019-04-27T20:02:03.200Z,14.43
2019-04-27T20:04:34.614Z,13.73
2019-04-27T20:07:04.321Z,18.07
2019-04-27T20:09:44.824Z,15.10
2019-04-27T20:12:14.502Z,15.53
2019-04-27T20:14:56.395Z,15.77
2019-04-27T20:17:26.955Z,17.00
2019-04-27T20:19:56.830Z,15.60
2019-04-27T20:22:26.511Z,18.07
2019-04-27T20:24:56.178Z,18.00
2019-04-27T20:27:25.835Z,16.63
2019-04-27T20:29:55.496Z,19.77
2019-04-27T20:32:25.158Z,17.43
2019-04-27T20:34:54.810Z,15.10
2019-04-27T20:37:24.474Z,15.17
2019-04-27T20:39:54.148Z,14.67
2019-04-27T20:42:23.833Z,19.47
2019-04-27T20:44:53.585Z,15.50
2019-04-27T20:47:23.256Z,17.33
2019-04-27T20:49:52.920Z,14.77
2019-04-27T20:52:24.246Z,16.33
2019-04-27T20:54:53.909Z,16.90
2019-04-27T20:57:23.576Z,15.77
2019-04-27T20:59:53.175Z,17.20
2019-04-27T21:02:31.921Z,16.73
2019-04-27T21:05:05.697Z,16.03
2019-04-27T21:07:39.729Z,13.60
2019-04-27T21:10:09.543Z,14.73
2019-04-27T21:12:39.240Z,14.47
2019-04-27T21:15:08.897Z,19.77
2019-04-27T21:17:38.568Z,14.43
2019-04-27T21:20:08.314Z,17.60
2019-04-27T21:22:38.034Z,16.23
2019-04-27T21:25:07.831Z,14.77
2019-04-27T21:27:37.544Z,16.57
2019-04-27T21:30:07.438Z,16.23
2019-04-27T21:32:37.102Z,15.60
2019-04-27T21:35:07.679Z,15.83
2019-04-27T21:37:37.339Z,15.30
2019-04-27T21:40:22.882Z,15.93
2019-04-27T21:42:53.446Z,20.03
2019-04-27T21:45:23.139Z,14.70
2019-04-27T21:47:52.788Z,15.47
2019-04-27T21:50:23.283Z,14.63
2019-04-27T21:53:02.446Z,14.40
2019-04-27T21:55:33.853Z,13.90
2019-04-27T21:58:03.542Z,18.33
2019-04-27T22:00:39.778Z,17.87
2019-04-27T22:03:12.178Z,15.13
2019-04-27T22:05:41.870Z,15.70
2019-04-27T22:08:11.871Z,14.00
2019-04-27T22:10:41.778Z,15.37
2019-04-27T22:13:11.450Z,14.37
2019-04-27T22:15:41.699Z,17.10
2019-04-27T22:18:11.505Z,19.83
2019-04-27T22:20:42.675Z,15.27
2019-04-27T22:23:32.174Z,15.57
2019-04-27T22:26:01.906Z,15.50
2019-04-27T22:28:44.102Z,16.43
2019-04-27T22:31:02.915Z,14.83
2019-04-27T22:33:32.592Z,15.90
2019-04-27T22:36:02.274Z,14.43
2019-04-27T22:38:32.696Z,15.43
2019-04-27T22:41:21.353Z,13.10
2019-04-27T22:44:07.892Z,13.97
2019-04-27T22:46:42.093Z,13.57
2019-04-27T22:49:11.674Z,15.23
2019-04-27T22:51:43.127Z,15.87
2019-04-27T22:54:12.553Z,13.23
2019-04-27T22:56:43.860Z,16.07
2019-04-27T22:59:31.762Z,14.80
2019-04-27T23:02:03.008Z,15.93
2019-04-27T23:04:34.316Z,14.40
2019-04-27T23:07:03.928Z,13.73
2019-04-27T23:09:33.597Z,15.13
2019-04-27T23:12:03.343Z,14.90
2019-04-27T23:14:33.012Z,15.83
2019-04-27T23:17:19.281Z,14.70
2019-04-27T23:19:50.845Z,17.80
2019-04-27T23:22:21.372Z,15.10
2019-04-27T23:24:51.850Z,13.87
2019-04-27T23:27:21.709Z,19.10
2019-04-27T23:29:51.614Z,14.43
2019-04-27T23:32:25.651Z,14.87
2019-04-27T23:34:56.396Z,14.27
2019-04-27T23:37:26.016Z,13.00
2019-04-27T23:39:55.655Z,15.43
2019-04-27T23:42:25.357Z,15.27
2019-04-27T23:44:55.022Z,15.00
2019-04-27T23:47:24.687Z,15.43
2019-04-27T23:49:54.295Z,12.20
2019-04-27T23:52:41.764Z,16.30
2019-04-27T23:55:11.408Z,15.77
2019-04-27T23:57:41.098Z,12.90
